Terminal Aerodrome Forecast
Issued by NWS Lake Charles, LA

Home | Current Version | Previous Version | Text Only | Print | Product List | Glossary On
Versions: 1 2 3 4 5 6 7 8 9 10 11 12 13 14 15 16 17 18
743
FTUS44 KLCH 172345 AAA
TAFLFT
TAF AMD
KLFT 172345Z 1800/1824 18007KT P6SM VCSH BKN023
      TEMPO 1800/1804 SCT023
     FM180400 15005KT P6SM VCSH SCT004 OVC010
      TEMPO 1804/1808 OVC008
     FM180800 VRB03KT 5SM BR VCSH OVC004
      TEMPO 1808/1812 2SM BR OVC008
     FM181800 16006KT P6SM SHRA OVC015=

USA.gov is the U.S. government's official web portal to all federal, state and local government web resources and services.